Time;durP1;ratioP1;P1;durP2;ratioP2;P2;SDS_P1;SDS_P2;PMS_P1;PMS_P2;Temp;Humidity;BMP_temperature;BMP_pressure;BME280_temperature;BME280_humidity;BME280_pressure;Samples;Min_cycle;Max_cycle;Signal;HPM_P1;HPM_P2
2021/06/23 00:00:03;;;;;;;41.78;32.33;;;;;;;14.50;85.43;101367.75;4839415;29;20046;-68
2021/06/23 00:02:38;;;;;;;42.38;32.45;;;;;;;14.39;86.20;101377.50;4823459;29;20513;-73
2021/06/23 00:05:06;;;;;;;44.78;33.35;;;;;;;14.34;86.06;101372.13;4839353;29;20049;-70
2021/06/23 00:07:33;;;;;;;45.53;33.67;;;;;;;14.07;87.26;101366.81;4839017;29;20062;-68
2021/06/23 00:14:25;;;;;;;39.28;31.38;;;;;;;14.25;87.53;101369.31;4839361;29;20501;-75
2021/06/23 00:16:52;;;;;;;41.33;33.55;;;;;;;14.21;87.11;101364.75;4838281;29;20394;-72
2021/06/23 00:19:22;;;;;;;42.13;31.95;;;;;;;14.46;85.69;101375.91;4839067;29;20065;-68
2021/06/23 00:21:50;;;;;;;39.80;30.80;;;;;;;14.46;85.80;101372.31;4839097;29;20054;-73
2021/06/23 00:24:17;;;;;;;42.25;31.65;;;;;;;14.29;86.88;101361.19;4901777;29;20061;-70
2021/06/23 00:26:45;;;;;;;40.88;31.80;;;;;;;14.20;86.91;101366.69;4839176;29;20054;-69
2021/06/23 00:29:13;;;;;;;42.50;32.20;;;;;;;13.96;88.47;101371.81;4838650;29;20061;-70
2021/06/23 00:31:42;;;;;;;44.00;32.05;;;;;;;14.12;88.93;101370.22;4838252;29;20061;-72
2021/06/23 00:34:11;;;;;;;46.45;31.63;;;;;;;14.31;87.07;101364.47;4837316;29;20050;-71
2021/06/23 00:36:38;;;;;;;40.03;30.92;;;;;;;14.23;87.13;101367.97;4837734;29;20058;-76
2021/06/23 00:39:06;;;;;;;41.40;30.05;;;;;;;14.32;86.82;101363.31;4838706;29;20053;-72
2021/06/23 00:41:34;;;;;;;41.47;31.13;;;;;;;14.12;87.48;101367.47;4837830;29;20136;-72
2021/06/23 00:44:02;;;;;;;35.53;28.40;;;;;;;14.20;86.86;101372.22;4838903;29;20513;-71
2021/06/23 00:46:32;;;;;;;40.45;30.15;;;;;;;13.85;88.66;101380.72;4855649;29;20062;-72
2021/06/23 00:49:01;;;;;;;37.17;29.05;;;;;;;13.79;89.40;101376.47;4842226;29;20046;-71
2021/06/23 00:51:34;;;;;;;39.70;30.27;;;;;;;13.84;89.74;101385.47;4888271;29;20521;-76
2021/06/23 00:54:34;;;;;;;40.20;29.23;;;;;;;14.05;88.01;101371.84;4835448;29;20506;-74
2021/06/23 00:57:06;;;;;;;40.78;29.70;;;;;;;14.05;88.15;101383.72;4838328;29;20050;-77
2021/06/23 00:59:34;;;;;;;41.80;29.27;;;;;;;14.00;87.78;101369.25;4837717;29;20054;-72
2021/06/23 01:02:03;;;;;;;37.95;27.77;;;;;;;14.12;87.87;101384.09;4838156;29;20057;-75
2021/06/23 01:04:31;;;;;;;43.17;29.03;;;;;;;14.07;88.12;101378.69;4837120;29;20057;-71
2021/06/23 01:07:00;;;;;;;37.92;28.33;;;;;;;14.12;87.24;101377.75;4822236;29;20050;-71
2021/06/23 01:09:28;;;;;;;42.08;28.90;;;;;;;14.06;87.41;101376.25;4837478;29;20137;-70
2021/06/23 01:12:13;;;;;;;39.97;29.02;;;;;;;14.19;87.02;101372.56;4822770;29;20054;-71
2021/06/23 01:14:42;;;;;;;38.70;28.55;;;;;;;14.02;87.45;101375.25;4836873;29;20057;-72
2021/06/23 01:17:11;;;;;;;41.05;30.42;;;;;;;13.91;88.87;101376.69;4837931;29;20054;-76
2021/06/23 01:19:44;;;;;;;37.78;29.40;;;;;;;14.10;87.84;101372.53;4840730;29;20054;-77
2021/06/23 01:22:15;;;;;;;38.63;30.10;;;;;;;14.00;87.88;101375.56;4840256;29;20054;-79
2021/06/23 01:24:44;;;;;;;43.42;31.60;;;;;;;14.14;87.86;101370.72;4824263;29;20058;-77
2021/06/23 01:27:12;;;;;;;43.50;30.25;;;;;;;14.36;86.37;101375.41;4901857;29;20065;-73
2021/06/23 01:29:44;;;;;;;52.95;31.92;;;;;;;14.22;86.64;101375.50;4839815;29;20611;-76
2021/06/23 01:32:33;;;;;;;40.75;30.38;;;;;;;14.43;85.71;101370.19;4831954;29;20061;-81
2021/06/23 01:35:01;;;;;;;42.85;30.30;;;;;;;14.46;85.32;101380.63;4836850;29;20406;-74
2021/06/23 01:37:29;;;;;;;41.53;31.17;;;;;;;14.25;86.24;101371.25;4837145;29;20049;-79
2021/06/23 01:39:59;;;;;;;46.05;33.30;;;;;;;14.16;86.22;101373.19;4838194;29;20054;-79
2021/06/23 01:42:27;;;;;;;;;;;;;;;14.10;87.44;101375.31;4886421;29;20065;-79
2021/06/23 01:44:59;;;;;;;49.30;33.42;;;;;;;13.98;87.51;101377.84;4836449;29;19924;-68
2021/06/23 01:47:27;;;;;;;44.53;32.50;;;;;;;14.09;87.94;101372.81;4837729;29;20058;-70
2021/06/23 01:49:55;;;;;;;47.20;33.67;;;;;;;14.03;87.12;101372.19;4886022;29;20525;-74
2021/06/23 01:52:22;;;;;;;44.92;32.95;;;;;;;14.03;87.64;101386.03;4821475;29;20054;-82
2021/06/23 01:54:53;;;;;;;;;;;;;;;14.08;87.52;101377.56;4886998;29;20054;-78
2021/06/23 01:57:20;;;;;;;49.30;35.17;;;;;;;13.72;89.11;101378.88;4901925;29;19929;-82
2021/06/23 01:59:52;;;;;;;53.03;34.88;;;;;;;13.77;89.89;101376.78;4808270;29;20054;-82
2021/06/23 02:02:44;;;;;;;48.25;35.33;;;;;;;13.90;89.26;101378.63;4838179;29;20070;-76
2021/06/23 02:05:23;;;;;;;46.72;33.80;;;;;;;13.92;88.95;101387.44;4838111;29;20057;-76
2021/06/23 02:08:10;;;;;;;55.03;34.63;;;;;;;14.07;88.16;101375.91;4839130;29;20069;-76
2021/06/23 02:10:43;;;;;;;48.35;35.92;;;;;;;14.11;87.72;101376.09;4841301;29;20050;-79
2021/06/23 02:13:28;;;;;;;52.60;35.05;;;;;;;14.25;87.17;101366.53;4841173;29;20393;-81
2021/06/23 02:16:17;;;;;;;57.38;35.40;;;;;;;14.12;87.38;101375.78;4840674;29;20061;-80
2021/06/23 02:18:45;;;;;;;53.80;34.58;;;;;;;14.06;87.60;101366.00;4840062;29;20370;-79
2021/06/23 02:21:17;;;;;;;49.63;34.35;;;;;;;14.01;88.46;101357.84;4840496;29;20050;-74
2021/06/23 02:23:50;;;;;;;49.13;34.45;;;;;;;14.27;87.31;101363.47;4889757;29;20053;-78
2021/06/23 02:26:18;;;;;;;50.03;34.20;;;;;;;13.97;88.07;101375.41;4904761;29;20050;-72
2021/06/23 02:28:47;;;;;;;52.85;35.50;;;;;;;13.70;90.13;101370.06;4842180;29;20053;-71
2021/06/23 02:31:17;;;;;;;45.22;33.92;;;;;;;13.78;90.04;101367.34;4839217;29;20057;-70
2021/06/23 02:33:53;;;;;;;49.55;33.22;;;;;;;13.92;89.09;101362.50;4841089;29;20058;-69
2021/06/23 02:36:29;;;;;;;46.65;34.47;;;;;;;14.02;89.32;101373.31;4824662;29;20254;-69
2021/06/23 02:38:57;;;;;;;45.50;34.67;;;;;;;13.60;90.28;101367.59;4824285;29;20057;-65
2021/06/23 02:41:25;;;;;;;52.53;35.33;;;;;;;13.65;91.10;101367.44;4823676;29;20058;-71
2021/06/23 02:43:55;;;;;;;44.88;31.90;;;;;;;13.74;90.56;101379.38;4825641;29;20050;-67
2021/06/23 02:46:28;;;;;;;49.72;33.78;;;;;;;13.73;90.29;101381.31;4888243;29;20422;-68
2021/06/23 02:49:06;;;;;;;46.00;31.30;;;;;;;13.91;89.50;101379.47;4890163;29;20457;-69
2021/06/23 02:51:42;;;;;;;43.63;31.60;;;;;;;13.88;89.10;101382.88;4839723;29;20537;-67
2021/06/23 02:54:10;;;;;;;37.53;29.83;;;;;;;14.00;88.56;101385.84;4825285;29;20058;-73
2021/06/23 02:57:04;;;;;;;37.42;29.65;;;;;;;14.02;88.54;101387.16;4896779;29;20131;-70
2021/06/23 02:59:34;;;;;;;42.10;29.60;;;;;;;13.95;88.75;101389.56;4864891;29;20059;-73
2021/06/23 03:02:04;;;;;;;40.90;28.60;;;;;;;13.71;89.96;101394.66;4880613;29;20056;-71
2021/06/23 03:04:33;;;;;;;40.50;28.27;;;;;;;13.79;89.89;101385.56;4881221;29;20067;-74
2021/06/23 03:07:11;;;;;;;33.60;25.65;;;;;;;13.80;89.29;101384.47;4896584;29;20535;-71
2021/06/23 03:09:47;;;;;;;35.22;26.25;;;;;;;13.83;89.56;101383.81;4866914;29;20060;-73
2021/06/23 03:12:34;;;;;;;37.97;26.65;;;;;;;13.98;88.88;101382.59;4882806;29;20180;-70
2021/06/23 03:15:22;;;;;;;40.25;26.20;;;;;;;13.82;88.93;101387.72;4821343;29;20062;-71
2021/06/23 03:17:54;;;;;;;31.58;25.55;;;;;;;13.76;89.73;101380.69;4807378;29;20073;-76
2021/06/23 03:20:22;;;;;;;34.40;24.60;;;;;;;13.96;89.43;101376.53;4807758;29;20062;-73
2021/06/23 03:22:52;;;;;;;35.42;24.15;;;;;;;14.01;88.99;101373.63;4822645;29;20069;-75
2021/06/23 03:29:48;;;;;;;28.20;21.90;;;;;;;14.15;87.43;101377.09;4822699;29;20264;-71
2021/06/23 03:32:15;;;;;;;29.60;22.33;;;;;;;14.05;88.00;101380.16;4807555;29;20057;-71
2021/06/23 03:34:43;;;;;;;28.40;21.50;;;;;;;14.15;87.57;101366.00;4777204;29;20071;-71
2021/06/23 03:37:12;;;;;;;31.85;22.15;;;;;;;14.20;87.42;101374.19;4765026;30;20059;-69
2021/06/23 03:39:42;;;;;;;33.33;22.88;;;;;;;13.95;88.12;101372.94;4750588;30;20056;-69
2021/06/23 03:42:10;;;;;;;26.00;21.58;;;;;;;13.97;88.54;101369.84;4767682;30;20060;-69
2021/06/23 03:44:39;;;;;;;26.70;21.33;;;;;;;14.23;87.82;101373.53;4772154;30;20044;-78
2021/06/23 03:47:12;;;;;;;27.88;21.98;;;;;;;14.03;88.39;101379.66;4744397;29;20055;-74
2021/06/23 03:49:40;;;;;;;27.80;22.15;;;;;;;14.06;87.29;101371.53;4752660;30;20048;-78
2021/06/23 03:52:08;;;;;;;28.27;22.65;;;;;;;13.96;87.93;101373.78;4759781;29;20057;-75
2021/06/23 03:54:35;;;;;;;28.98;22.63;;;;;;;14.10;88.19;101380.00;4839907;29;20050;-77
2021/06/23 03:57:03;;;;;;;31.10;25.08;;;;;;;13.69;90.12;101377.56;4840931;29;20073;-77
2021/06/23 03:59:33;;;;;;;29.73;24.38;;;;;;;13.83;90.02;101383.81;4837759;29;20069;-74
2021/06/23 04:02:02;;;;;;;34.85;25.80;;;;;;;13.93;89.61;101385.50;4901658;29;20486;-80
2021/06/23 04:04:30;;;;;;;31.92;24.83;;;;;;;13.77;89.91;101385.09;4886767;29;20061;-79
2021/06/23 04:06:57;;;;;;;34.17;25.80;;;;;;;13.73;90.78;101381.31;4823615;29;20050;-77
2021/06/23 04:09:27;;;;;;;35.40;25.90;;;;;;;13.86;90.07;101393.44;4840166;29;20530;-80
2021/06/23 04:12:05;;;;;;;36.08;27.05;;;;;;;13.87;89.95;101393.13;4838366;29;20062;-81
2021/06/23 04:14:44;;;;;;;32.17;26.13;;;;;;;13.79;90.35;101402.19;4888045;29;20478;-82
2021/06/23 04:17:11;;;;;;;37.70;28.02;;;;;;;13.88;90.44;101399.50;4823347;29;20062;-81
2021/06/23 04:19:39;;;;;;;34.97;26.17;;;;;;;13.70;90.77;101398.59;4850293;29;20062;-78
2021/06/23 04:22:12;;;;;;;34.70;26.77;;;;;;;13.86;90.45;101408.09;4838550;29;20064;-75
2021/06/23 04:24:39;;;;;;;37.97;25.95;;;;;;;13.93;89.63;101404.88;4918316;29;20068;-76
2021/06/23 04:27:09;;;;;;;33.20;26.95;;;;;;;14.18;88.74;101401.38;4857149;29;20058;-73
2021/06/23 04:29:39;;;;;;;;;;;;;;;14.25;87.95;101410.03;4838822;29;20058;-77
2021/06/23 04:32:07;;;;;;;40.35;28.13;;;;;;;13.99;89.22;101411.91;4846505;29;19940;-65
2021/06/23 04:34:39;;;;;;;34.45;26.30;;;;;;;14.00;88.79;101403.25;4842327;29;20066;-67
2021/06/23 04:37:26;;;;;;;35.80;25.83;;;;;;;13.82;90.18;101409.06;4839383;29;20054;-74
2021/06/23 04:39:56;;;;;;;33.47;26.00;;;;;;;13.94;89.28;101415.63;4902877;29;20065;-71
2021/06/23 04:42:23;;;;;;;35.92;26.40;;;;;;;14.17;88.55;101428.28;4839478;29;20506;-69
2021/06/23 04:44:50;;;;;;;39.70;26.25;;;;;;;14.15;88.03;101407.56;4825995;29;20068;-71
2021/06/23 04:47:19;;;;;;;34.40;26.58;;;;;;;14.12;88.08;101416.53;4857744;29;20524;-70
2021/06/23 04:49:47;;;;;;;31.80;23.87;;;;;;;13.93;88.49;101413.19;4841145;29;20062;-68
2021/06/23 04:52:18;;;;;;;37.38;25.08;;;;;;;13.90;89.02;101411.03;4840143;29;20061;-70
2021/06/23 04:54:46;;;;;;;32.83;24.52;;;;;;;14.03;88.82;101413.72;4858113;29;20389;-69
2021/06/23 04:57:13;;;;;;;30.85;22.33;;;;;;;14.25;87.12;101421.97;4858459;29;20416;-70
2021/06/23 04:59:41;;;;;;;33.05;22.75;;;;;;;14.20;86.95;101419.34;4842531;29;20058;-70
2021/06/23 05:02:09;;;;;;;30.15;23.05;;;;;;;14.05;87.42;101418.94;4845175;29;20049;-80
2021/06/23 05:04:39;;;;;;;28.17;21.75;;;;;;;14.12;87.94;101430.38;4861977;29;20075;-71
2021/06/23 05:07:08;;;;;;;32.70;21.58;;;;;;;14.11;87.55;101423.19;4829969;29;20138;-71
2021/06/23 05:09:39;;;;;;;31.02;21.73;;;;;;;13.88;88.63;101427.19;4829654;29;20057;-73
2021/06/23 05:12:08;;;;;;;29.17;21.83;;;;;;;13.78;89.42;101421.91;4843294;29;20045;-74
2021/06/23 05:14:36;;;;;;;29.33;22.10;;;;;;;13.97;88.81;101425.25;4841947;29;20056;-73
2021/06/23 05:17:04;;;;;;;30.15;23.35;;;;;;;13.87;89.24;101431.91;4842589;29;20057;-72
2021/06/23 05:19:33;;;;;;;30.88;22.35;;;;;;;13.96;89.22;101435.53;4858617;29;20072;-76
2021/06/23 05:22:03;;;;;;;28.17;21.75;;;;;;;14.19;88.02;101439.06;4842195;29;20417;-74
2021/06/23 05:24:32;;;;;;;29.35;21.55;;;;;;;13.93;88.03;101436.16;4842245;29;20405;-75
2021/06/23 05:26:59;;;;;;;28.65;21.92;;;;;;;14.04;88.61;101440.28;4857718;29;20053;-80
2021/06/23 05:29:27;;;;;;;29.58;22.90;;;;;;;14.27;87.69;101446.59;4857136;29;20053;-72
2021/06/23 05:31:54;;;;;;;31.60;23.33;;;;;;;13.79;89.64;101448.47;4842319;29;20523;-84
2021/06/23 05:34:22;;;;;;;36.40;24.80;;;;;;;13.71;90.20;101440.91;4859646;29;20049;-81
2021/06/23 05:36:49;;;;;;;35.28;24.63;;;;;;;13.74;90.50;101440.31;4846065;29;20050;-68
2021/06/23 05:39:17;;;;;;;31.77;24.45;;;;;;;13.82;90.00;101450.59;4860947;29;20500;-71
2021/06/23 05:41:44;;;;;;;33.40;23.90;;;;;;;13.93;89.60;101451.97;4863477;29;20053;-69
2021/06/23 05:44:12;;;;;;;37.10;25.02;;;;;;;13.96;89.61;101443.00;4830598;29;20058;-83
2021/06/23 05:46:39;;;;;;;29.77;23.90;;;;;;;13.87;89.88;101442.97;4861033;29;20056;-79
2021/06/23 05:49:06;;;;;;;31.50;24.83;;;;;;;13.92;89.48;101451.16;4862156;29;20050;-74
2021/06/23 05:51:34;;;;;;;34.88;25.00;;;;;;;13.90;90.61;101452.56;4861577;29;20065;-75
2021/06/23 05:54:02;;;;;;;30.73;24.67;;;;;;;13.86;90.99;101443.28;4829006;29;20485;-79
2021/06/23 05:56:30;;;;;;;32.03;25.40;;;;;;;14.01;90.26;101449.25;4861409;29;20061;-69
2021/06/23 06:03:28;;;;;;;39.08;24.80;;;;;;;14.00;89.86;101450.34;4859760;29;20070;-73
2021/06/23 06:05:56;;;;;;;32.25;24.45;;;;;;;13.94;90.25;101448.06;4860634;29;20540;-68
2021/06/23 06:08:39;;;;;;;36.05;25.83;;;;;;;14.04;90.17;101458.84;4860514;29;20050;-67
2021/06/23 06:11:22;;;;;;;34.08;24.48;;;;;;;14.06;89.35;101457.41;4842435;29;20077;-79
2021/06/23 06:18:16;;;;;;;32.58;24.75;;;;;;;13.87;89.93;101472.63;4860820;29;20065;-71
2021/06/23 06:20:47;;;;;;;31.73;24.67;;;;;;;14.21;91.46;101470.03;4859386;29;20499;-72
2021/06/23 06:23:17;;;;;;;30.95;22.02;;;;;;;14.54;89.22;101472.13;4858731;29;20053;-70
2021/06/23 06:25:45;;;;;;;30.98;22.08;;;;;;;14.96;89.21;101475.34;4858520;29;20054;-68
2021/06/23 06:28:12;;;;;;;36.00;22.88;;;;;;;15.35;87.60;101478.78;4859678;29;20054;-70
2021/06/23 06:30:41;;;;;;;27.85;20.38;;;;;;;15.20;84.58;101479.25;4858626;29;20078;-71
2021/06/23 06:33:08;;;;;;;32.53;22.83;;;;;;;15.11;83.58;101474.84;4857570;29;20060;-69
2021/06/23 06:35:36;;;;;;;24.58;19.88;;;;;;;15.53;85.43;101485.19;4827298;29;20054;-68
2021/06/23 06:38:03;;;;;;;26.80;21.52;;;;;;;15.22;83.09;101488.06;4858662;29;20053;-67
2021/06/23 06:40:31;;;;;;;29.83;22.60;;;;;;;14.95;84.26;101488.38;4841588;29;20069;-66
2021/06/23 06:42:58;;;;;;;38.35;26.13;;;;;;;14.78;84.15;101490.31;4841995;29;20054;-68
2021/06/23 06:45:26;;;;;;;36.00;24.33;;;;;;;14.78;85.20;101499.44;4859419;29;20066;-67
2021/06/23 06:47:56;;;;;;;34.90;26.85;;;;;;;14.64;86.19;101496.00;4842384;29;20060;-63
2021/06/23 06:50:24;;;;;;;44.22;26.88;;;;;;;14.75;84.79;101502.84;4842106;29;20058;-64
2021/06/23 06:52:52;;;;;;;37.72;26.67;;;;;;;14.51;86.10;101496.91;4858627;29;20049;-62
2021/06/23 06:55:28;;;;;;;38.95;27.50;;;;;;;14.36;85.57;101495.41;4858857;29;20056;-68
2021/06/23 06:58:09;;;;;;;42.13;27.77;;;;;;;14.31;86.72;101500.25;4808611;29;20375;-70
2021/06/23 07:00:47;;;;;;;37.83;27.00;;;;;;;14.54;85.98;101507.34;4819603;29;20098;-71
2021/06/23 07:03:18;;;;;;;35.95;27.63;;;;;;;14.17;86.78;101502.28;4776787;29;20065;-76
2021/06/23 07:05:48;;;;;;;36.55;28.30;;;;;;;14.27;87.30;101505.63;4795986;29;20062;-73
2021/06/23 07:08:17;;;;;;;37.25;27.70;;;;;;;14.28;86.13;101506.41;4821499;29;20055;-74
2021/06/23 07:10:53;;;;;;;38.22;27.67;;;;;;;14.06;87.92;101506.44;4819969;29;20065;-70
2021/06/23 07:13:20;;;;;;;40.50;27.48;;;;;;;13.99;87.99;101500.53;4806273;29;20061;-69
2021/06/23 07:15:48;;;;;;;41.63;24.95;;;;;;;14.08;88.77;101498.63;4821254;29;20265;-65
2021/06/23 07:18:16;;;;;;;33.97;23.20;;;;;;;14.51;87.29;101508.81;4819611;29;20059;-69
2021/06/23 07:20:43;;;;;;;33.65;24.00;;;;;;;14.45;84.54;101514.84;4820071;29;20418;-69
2021/06/23 07:23:10;;;;;;;33.83;24.85;;;;;;;13.97;86.85;101513.88;4806249;29;20050;-78
2021/06/23 07:25:38;;;;;;;35.58;23.20;;;;;;;14.17;87.27;101518.91;4806252;29;20057;-68
2021/06/23 07:28:06;;;;;;;36.78;23.13;;;;;;;14.14;86.17;101520.34;4818886;29;20398;-67
2021/06/23 07:37:18;;;;;;;30.10;23.05;;;;;;;13.99;86.96;101508.84;4826293;29;20057;-71
2021/06/23 07:39:46;;;;;;;32.10;23.75;;;;;;;13.98;87.21;101523.84;4857554;29;20053;-68
2021/06/23 07:42:13;;;;;;;32.40;24.13;;;;;;;14.10;87.38;101513.00;4857552;29;20076;-69
2021/06/23 07:49:20;;;;;;;31.48;21.60;;;;;;;14.38;85.73;101526.34;4839152;29;20049;-75
2021/06/23 07:54:34;;;;;;;28.90;19.83;;;;;;;14.28;85.71;101525.81;4839306;29;20057;-72
2021/06/23 08:14:40;;;;;;;28.55;20.38;;;;;;;14.04;85.49;101520.63;4840186;29;20501;-72
2021/06/23 08:17:08;;;;;;;30.73;20.13;;;;;;;14.25;86.22;101534.75;4822536;29;20069;-69
2021/06/23 08:19:37;;;;;;;27.45;20.85;;;;;;;14.29;85.59;101531.06;4822893;29;20050;-68
2021/06/23 08:22:04;;;;;;;26.83;20.85;;;;;;;14.18;86.01;101537.16;4823192;29;20453;-72
2021/06/23 08:24:32;;;;;;;25.88;20.83;;;;;;;14.07;85.80;101531.06;4839442;29;20233;-70
2021/06/23 08:26:59;;;;;;;28.60;22.00;;;;;;;14.18;86.58;101534.38;4841698;29;20057;-75
2021/06/23 08:29:26;;;;;;;26.73;20.65;;;;;;;14.27;86.19;101527.78;4825344;29;20509;-69
2021/06/23 08:31:54;;;;;;;31.20;21.95;;;;;;;14.15;86.04;101523.94;4839746;29;20065;-74
2021/06/23 08:34:25;;;;;;;27.98;20.83;;;;;;;14.48;85.60;101526.09;4823955;29;20062;-72
2021/06/23 08:36:53;;;;;;;25.42;20.35;;;;;;;14.52;83.77;101531.81;4839763;29;20451;-78
2021/06/23 08:39:20;;;;;;;31.02;20.70;;;;;;;14.37;83.96;101521.97;4842255;29;20050;-75
2021/06/23 08:41:47;;;;;;;28.02;20.70;;;;;;;14.08;85.36;101527.16;4839099;29;20419;-74
2021/06/23 08:44:15;;;;;;;28.88;20.70;;;;;;;14.26;85.08;101519.81;4839311;29;20050;-74
2021/06/23 08:51:14;;;;;;;33.05;20.65;;;;;;;14.68;82.56;101530.22;4856918;29;20072;-68
2021/06/23 08:53:41;;;;;;;28.35;20.08;;;;;;;14.60;82.75;101525.47;4857255;29;20057;-72
2021/06/23 08:56:09;;;;;;;25.17;19.95;;;;;;;14.52;83.04;101521.53;4856801;29;20054;-70
2021/06/23 08:58:36;;;;;;;22.63;19.00;;;;;;;14.58;82.31;101524.97;4857845;29;20057;-66
2021/06/23 09:05:45;;;;;;;26.92;19.63;;;;;;;14.44;83.15;101525.09;4856739;29;20061;-71
2021/06/23 09:08:13;;;;;;;25.90;19.00;;;;;;;14.31;83.87;101533.50;4840290;29;20053;-68
2021/06/23 09:10:40;;;;;;;25.17;18.42;;;;;;;14.68;83.16;101529.44;4841144;29;20469;-72
2021/06/23 09:13:08;;;;;;;27.45;19.05;;;;;;;14.79;82.45;101539.91;4858018;29;20049;-70
2021/06/23 09:15:57;;;;;;;27.58;19.38;;;;;;;14.73;80.90;101527.34;4859559;29;20050;-70
2021/06/23 09:18:35;;;;;;;23.30;17.13;;;;;;;15.13;81.09;101525.31;4860346;29;20497;-71
2021/06/23 09:21:25;;;;;;;26.20;16.90;;;;;;;15.45;80.04;101530.41;4844536;29;20057;-70
2021/06/23 09:23:57;;;;;;;25.55;18.15;;;;;;;14.59;81.47;101538.53;4861924;29;20054;-70
2021/06/23 09:26:27;;;;;;;29.17;19.13;;;;;;;14.64;82.15;101535.59;4843429;29;20045;-75
2021/06/23 09:29:15;;;;;;;27.10;18.05;;;;;;;14.68;82.41;101538.56;4828646;29;20489;-72
2021/06/23 09:31:49;;;;;;;28.73;17.73;;;;;;;15.16;81.34;101541.28;4860446;29;20053;-70
2021/06/23 09:34:27;;;;;;;24.60;16.88;;;;;;;15.31;79.29;101530.53;4842659;29;20531;-70
2021/06/23 09:36:55;;;;;;;22.30;16.20;;;;;;;15.73;78.21;101534.50;4860798;29;20512;-72
2021/06/23 09:39:24;;;;;;;20.30;16.20;;;;;;;15.47;78.17;101536.47;4859735;29;20072;-70
2021/06/23 09:41:53;;;;;;;26.30;17.45;;;;;;;15.39;78.25;101531.69;4861328;29;20076;-76
2021/06/23 09:44:26;;;;;;;23.90;17.05;;;;;;;15.48;78.11;101535.34;4860548;29;20061;-73
2021/06/23 09:46:54;;;;;;;20.95;16.90;;;;;;;15.21;78.76;101538.38;4843324;29;20489;-76
2021/06/23 09:49:24;;;;;;;22.75;17.30;;;;;;;15.38;78.46;101533.66;4859059;29;20065;-71
2021/06/23 09:51:58;;;;;;;21.67;17.30;;;;;;;14.95;79.74;101529.19;4859779;29;20552;-76
2021/06/23 09:54:30;;;;;;;19.17;15.77;;;;;;;15.32;79.41;101537.75;4859131;29;20061;-74
2021/06/23 09:57:13;;;;;;;21.13;18.33;;;;;;;14.81;80.28;101529.31;4828922;29;20213;-72
2021/06/23 09:59:42;;;;;;;23.17;17.27;;;;;;;15.05;80.06;101537.19;4859093;29;20049;-79
2021/06/23 10:02:30;;;;;;;21.57;17.00;;;;;;;14.56;81.82;101539.16;4843100;29;20057;-77
2021/06/23 10:04:59;;;;;;;22.25;17.00;;;;;;;14.97;81.13;101533.28;4842640;29;20054;-71
2021/06/23 10:07:41;;;;;;;25.50;18.17;;;;;;;14.65;81.53;101537.25;4859882;29;20054;-71
2021/06/23 10:10:11;;;;;;;22.75;16.95;;;;;;;15.22;80.95;101534.47;4858975;29;20064;-74
2021/06/23 10:12:39;;;;;;;23.90;18.77;;;;;;;15.18;78.72;101541.78;4843896;29;20053;-75
2021/06/23 10:15:07;;;;;;;24.52;19.92;;;;;;;14.88;80.88;101537.97;4859767;29;20765;-76
2021/06/23 10:17:36;;;;;;;26.90;20.00;;;;;;;15.08;80.86;101540.13;4844490;29;20463;-72
2021/06/23 10:20:05;;;;;;;27.35;18.05;;;;;;;15.26;79.75;101533.47;4827647;29;20084;-74
2021/06/23 10:22:33;;;;;;;31.10;18.95;;;;;;;15.10;80.27;101545.38;4844046;29;20073;-75
2021/06/23 10:25:06;;;;;;;24.13;19.50;;;;;;;15.24;79.58;101543.25;4843453;29;20057;-72
2021/06/23 10:27:35;;;;;;;24.00;19.10;;;;;;;15.05;79.89;101548.28;4842472;29;20072;-66
2021/06/23 10:30:04;;;;;;;27.73;19.42;;;;;;;15.20;79.98;101545.88;4826813;29;20632;-64
2021/06/23 10:32:32;;;;;;;23.05;18.30;;;;;;;15.45;78.80;101552.63;4858050;29;20057;-64
2021/06/23 10:34:59;;;;;;;26.00;19.58;;;;;;;15.38;78.77;101541.97;4858604;29;20049;-68
2021/06/23 10:37:28;;;;;;;29.30;19.50;;;;;;;15.19;79.86;101543.41;4858726;29;20156;-68
2021/06/23 10:39:55;;;;;;;22.60;17.77;;;;;;;15.64;78.11;101545.59;4827381;29;20056;-68
2021/06/23 10:42:24;;;;;;;22.67;18.73;;;;;;;15.64;78.22;101550.34;4842850;29;20062;-64
2021/06/23 10:44:54;;;;;;;22.30;18.10;;;;;;;15.82;76.70;101549.19;4843736;29;20054;-66
2021/06/23 10:47:30;;;;;;;;;;;;;;;15.51;77.67;101548.56;4860746;29;20057;-73
2021/06/23 10:49:58;;;;;;;23.38;19.10;;;;;;;15.47;77.88;101553.13;4859579;29;19931;-66
2021/06/23 10:52:30;;;;;;;22.23;18.40;;;;;;;15.42;78.45;101556.88;4841625;29;20068;-66
2021/06/23 10:55:03;;;;;;;23.75;19.25;;;;;;;15.37;78.81;101553.41;4859067;29;20053;-66
2021/06/23 10:57:54;;;;;;;22.65;18.35;;;;;;;15.78;77.36;101557.38;4859299;29;20050;-67
2021/06/23 11:00:23;;;;;;;24.58;18.20;;;;;;;15.75;77.44;101557.22;4858763;29;20052;-74
2021/06/23 11:03:14;;;;;;;21.50;18.35;;;;;;;15.60;77.56;101566.84;4843432;29;20054;-75
2021/06/23 11:05:52;;;;;;;20.60;18.38;;;;;;;15.61;77.25;101560.16;4857629;29;20053;-63
2021/06/23 11:08:24;;;;;;;24.02;19.10;;;;;;;15.66;77.31;101559.16;4858833;29;20058;-68
2021/06/23 11:10:55;;;;;;;23.40;19.15;;;;;;;15.61;77.37;101573.22;4859088;29;20054;-74
2021/06/23 11:13:27;;;;;;;25.42;19.33;;;;;;;15.60;77.19;101571.59;4857870;29;20049;-67
2021/06/23 11:15:55;;;;;;;23.83;18.55;;;;;;;15.54;77.65;101567.34;4859198;29;20486;-70
2021/06/23 11:18:24;;;;;;;26.13;20.35;;;;;;;15.32;78.33;101575.78;4858166;29;20433;-65
2021/06/23 11:20:56;;;;;;;24.75;19.73;;;;;;;15.35;79.12;101577.91;4859279;29;20058;-70
2021/06/23 11:23:43;;;;;;;22.50;18.77;;;;;;;15.68;78.08;101582.72;4841297;29;20058;-70
2021/06/23 11:26:23;;;;;;;23.77;18.40;;;;;;;15.96;76.81;101574.84;4859084;29;20505;-68
2021/06/23 11:29:10;;;;;;;23.93;18.63;;;;;;;15.88;76.15;101572.91;4858170;29;20518;-70
2021/06/23 11:35:29;;;;;;;22.52;18.13;;;;;;;15.57;79.01;101578.59;4858922;29;20064;-73
2021/06/23 11:37:57;;;;;;;21.65;17.35;;;;;;;15.43;79.01;101583.50;4856906;29;20429;-67
2021/06/23 11:40:24;;;;;;;19.85;17.00;;;;;;;15.48;78.48;101588.88;4858530;29;20053;-67
2021/06/23 11:42:53;;;;;;;27.70;18.52;;;;;;;15.38;79.51;101589.19;4841662;29;20057;-66
2021/06/23 11:45:21;;;;;;;22.85;17.20;;;;;;;15.27;79.95;101592.59;4857574;29;20544;-65
2021/06/23 11:52:26;;;;;;;20.80;16.55;;;;;;;15.51;79.22;101592.97;4839137;29;20068;-70
2021/06/23 11:54:53;;;;;;;20.20;16.38;;;;;;;15.68;78.97;101591.03;4901199;29;20058;-66
2021/06/23 11:57:20;;;;;;;20.23;16.45;;;;;;;15.45;78.71;101592.31;4901783;29;20061;-67
2021/06/23 11:59:50;;;;;;;26.80;17.92;;;;;;;15.35;79.48;101594.56;4838998;29;20046;-66
2021/06/23 12:06:54;;;;;;;20.52;15.38;;;;;;;15.76;78.39;101592.16;4839298;29;20080;-67
2021/06/23 12:09:23;;;;;;;19.45;15.32;;;;;;;15.57;79.10;101592.50;4838940;29;20057;-68
2021/06/23 12:11:50;;;;;;;21.38;16.35;;;;;;;15.48;78.87;101588.88;4840153;29;20516;-67
2021/06/23 12:14:18;;;;;;;21.75;15.35;;;;;;;15.63;78.20;101582.03;4822714;29;20058;-67
2021/06/23 12:16:45;;;;;;;19.25;15.70;;;;;;;15.49;79.32;101593.31;4839706;29;20061;-69
2021/06/23 12:23:50;;;;;;;19.50;15.32;;;;;;;15.66;77.73;101590.53;4839977;29;20089;-70
2021/06/23 12:26:22;;;;;;;20.45;14.45;;;;;;;15.83;78.30;101592.50;4838009;29;20497;-77
2021/06/23 12:28:50;;;;;;;20.83;15.27;;;;;;;15.71;77.76;101587.59;4838710;29;20509;-71
2021/06/23 12:31:17;;;;;;;20.88;15.55;;;;;;;15.72;77.79;101589.25;4823272;29;20065;-68
2021/06/23 12:33:45;;;;;;;18.70;14.77;;;;;;;16.06;76.87;101593.13;4886853;29;20058;-70
2021/06/23 12:36:13;;;;;;;18.15;14.57;;;;;;;16.26;75.97;101586.91;4841250;29;20050;-69
2021/06/23 12:38:42;;;;;;;16.90;15.02;;;;;;;16.44;74.45;101585.72;4839898;29;20053;-78
2021/06/23 12:41:09;;;;;;;18.95;14.85;;;;;;;16.18;75.61;101585.75;4809257;29;20058;-73